createdAt,value
2022-07-26T00:02:20.436Z,7.75
2022-07-26T00:06:25.970Z,14.85
2022-07-26T00:10:34.057Z,8.73
2022-07-26T00:14:39.552Z,9.75
2022-07-26T00:18:47.733Z,10.38
2022-07-26T00:22:53.081Z,8.25
2022-07-26T00:27:01.153Z,9.80
2022-07-26T00:31:06.839Z,9.73
2022-07-26T00:35:12.797Z,11.05
2022-07-26T00:39:18.144Z,10.70
2022-07-26T00:43:26.141Z,12.02
2022-07-26T00:47:31.481Z,8.60
2022-07-26T00:51:36.879Z,8.90
2022-07-26T00:55:42.613Z,8.57
2022-07-26T00:59:51.072Z,12.40
2022-07-26T01:03:57.510Z,8.75
2022-07-26T01:08:03.063Z,7.43
2022-07-26T01:12:09.135Z,8.32
2022-07-26T01:16:17.298Z,8.75
2022-07-26T01:20:22.865Z,6.78
2022-07-26T01:24:30.951Z,9.10
2022-07-26T01:28:40.548Z,7.15
2022-07-26T01:32:45.906Z,9.25
2022-07-26T01:36:51.649Z,8.05
2022-07-26T01:40:59.598Z,8.50
2022-07-26T01:45:05.349Z,8.57
2022-07-26T01:49:11.186Z,7.80
2022-07-26T01:53:16.583Z,8.23
2022-07-26T01:57:24.528Z,7.15
2022-07-26T02:01:39.384Z,8.23
2022-07-26T02:05:45.526Z,9.52
2022-07-26T02:09:50.917Z,11.93
2022-07-26T02:14:00.702Z,9.75
2022-07-26T02:18:06.139Z,9.63
2022-07-26T02:22:11.696Z,10.13
2022-07-26T02:26:17.140Z,9.80
2022-07-26T02:30:25.412Z,8.25
2022-07-26T02:34:33.815Z,8.82
2022-07-26T02:38:39.499Z,8.73
2022-07-26T02:42:44.913Z,9.63
2022-07-26T02:46:53.078Z,8.52
2022-07-26T02:50:58.471Z,9.30
2022-07-26T02:55:03.903Z,10.40
2022-07-26T02:59:10.391Z,9.75
2022-07-26T03:03:18.493Z,11.88
2022-07-26T03:07:23.827Z,9.98
2022-07-26T03:11:29.214Z,10.02
2022-07-26T03:15:34.728Z,10.70
2022-07-26T03:19:42.706Z,11.07
2022-07-26T03:23:48.080Z,11.13
2022-07-26T03:27:53.495Z,10.25
2022-07-26T03:31:59.481Z,12.00
2022-07-26T03:36:11.463Z,12.32
2022-07-26T03:40:21.425Z,10.95
2022-07-26T03:44:26.855Z,11.60
2022-07-26T03:48:34.009Z,13.40
2022-07-26T03:52:42.278Z,21.92
2022-07-26T03:56:47.730Z,14.88
2022-07-26T04:00:53.224Z,12.82
2022-07-26T04:04:59.229Z,9.00
2022-07-26T04:09:08.188Z,10.75
2022-07-26T04:13:13.564Z,10.52
2022-07-26T04:17:19.007Z,13.07
2022-07-26T04:21:24.770Z,15.32
2022-07-26T04:25:40.686Z,11.48
2022-07-26T04:29:46.543Z,11.45
2022-07-26T04:33:51.952Z,10.68
2022-07-26T04:37:57.361Z,13.65
2022-07-26T04:42:05.356Z,10.32
2022-07-26T04:46:10.941Z,14.32
2022-07-26T04:50:16.727Z,13.75
2022-07-26T04:54:23.332Z,12.40
2022-07-26T04:58:31.449Z,9.73
2022-07-26T05:02:36.986Z,12.05
2022-07-26T05:06:43.477Z,9.80
2022-07-26T05:10:54.752Z,10.93
2022-07-26T05:15:04.398Z,12.65
2022-07-26T05:19:10.347Z,12.38
2022-07-26T05:23:16.965Z,13.63
2022-07-26T05:27:22.338Z,10.65
2022-07-26T05:31:30.624Z,11.68
2022-07-26T05:35:37.427Z,12.57
2022-07-26T05:39:43.174Z,12.00
2022-07-26T05:43:50.382Z,14.05
2022-07-26T05:47:58.676Z,17.88
2022-07-26T05:52:04.091Z,14.57
2022-07-26T05:56:10.403Z,13.55
2022-07-26T06:00:18.021Z,18.35
2022-07-26T06:04:26.706Z,12.93
2022-07-26T06:08:34.873Z,12.45
2022-07-26T06:12:41.558Z,10.82
2022-07-26T06:16:46.999Z,16.10
2022-07-26T06:20:56.004Z,11.13
2022-07-26T06:25:09.255Z,10.60
2022-07-26T06:29:14.688Z,11.15
2022-07-26T06:33:21.427Z,15.32
2022-07-26T06:37:29.615Z,14.18
2022-07-26T06:41:34.983Z,12.60
2022-07-26T06:45:42.977Z,10.00
2022-07-26T06:49:48.498Z,13.07
2022-07-26T06:53:56.466Z,11.27
2022-07-26T06:58:06.308Z,16.38
2022-07-26T07:02:12.175Z,14.70
2022-07-26T07:06:17.797Z,10.40
2022-07-26T07:10:27.001Z,14.52
2022-07-26T07:14:34.139Z,13.02
2022-07-26T07:18:39.526Z,9.82
2022-07-26T07:22:44.854Z,14.18
2022-07-26T07:26:52.977Z,11.55
2022-07-26T07:30:58.414Z,9.80
2022-07-26T07:35:03.747Z,13.02
2022-07-26T07:39:18.207Z,9.60
2022-07-26T07:43:26.442Z,11.15
2022-07-26T07:47:33.722Z,7.57
2022-07-26T07:51:39.153Z,9.88
2022-07-26T07:55:46.739Z,6.63
2022-07-26T07:59:55.301Z,8.13
2022-07-26T08:04:01.203Z,13.25
2022-07-26T08:08:06.735Z,11.02
2022-07-26T08:12:14.164Z,6.68
2022-07-26T08:16:22.722Z,7.45
2022-07-26T08:20:30.452Z,7.00
2022-07-26T08:24:36.309Z,9.10
2022-07-26T08:28:47.819Z,8.35
2022-07-26T08:32:56.500Z,8.30
2022-07-26T08:37:16.406Z,13.20
2022-07-26T08:41:23.420Z,7.40
2022-07-26T08:45:30.569Z,8.88
2022-07-26T08:49:38.530Z,9.25
2022-07-26T08:53:43.887Z,8.48
2022-07-26T08:57:49.409Z,8.25
2022-07-26T09:01:56.768Z,9.98
2022-07-26T09:06:15.019Z,6.97
2022-07-26T09:10:20.463Z,11.30
2022-07-26T09:14:38.435Z,6.82
2022-07-26T09:18:43.965Z,6.68
2022-07-26T09:23:06.082Z,7.13
2022-07-26T09:27:13.449Z,7.88
2022-07-26T09:31:26.011Z,5.50
2022-07-26T09:35:51.307Z,9.45
2022-07-26T09:40:03.284Z,9.70
2022-07-26T09:44:23.858Z,9.60
2022-07-26T09:53:10.174Z,10.65
2022-07-26T09:57:21.738Z,8.95
2022-07-26T10:01:27.129Z,8.80
2022-07-26T10:05:32.820Z,10.38
2022-07-26T10:09:45.417Z,8.48
2022-07-26T10:13:53.519Z,11.07
2022-07-26T10:17:58.968Z,8.55
2022-07-26T10:22:25.506Z,10.27
2022-07-26T10:26:45.751Z,6.50
2022-07-26T10:30:53.897Z,9.82
2022-07-26T10:34:59.410Z,9.75
2022-07-26T10:39:11.419Z,7.03
2022-07-26T10:43:40.069Z,8.38
2022-07-26T10:48:14.468Z,8.27
2022-07-26T10:52:26.486Z,9.88
2022-07-26T10:56:34.822Z,8.85
2022-07-26T11:00:40.172Z,7.93
2022-07-26T11:04:51.001Z,11.60
2022-07-26T11:08:56.444Z,6.85
2022-07-26T11:13:03.508Z,6.75
2022-07-26T11:17:09.105Z,8.38
2022-07-26T11:21:20.148Z,9.07
2022-07-26T11:25:25.657Z,9.48
2022-07-26T11:29:40.731Z,8.20
2022-07-26T11:33:49.119Z,7.30
2022-07-26T11:38:11.858Z,6.45
2022-07-26T11:42:19.798Z,6.30
2022-07-26T11:46:25.683Z,9.93
2022-07-26T11:50:31.283Z,6.35
2022-07-26T11:54:48.734Z,9.38
2022-07-26T11:58:57.729Z,5.70
2022-07-26T12:03:03.084Z,6.10
2022-07-26T12:07:13.782Z,7.32
2022-07-26T12:11:23.141Z,5.45
2022-07-26T12:15:29.332Z,7.32
2022-07-26T12:19:35.776Z,8.25
2022-07-26T12:23:45.595Z,9.73
2022-07-26T12:27:53.598Z,9.55
2022-07-26T12:32:11.945Z,6.15
2022-07-26T12:36:27.157Z,8.73
2022-07-26T12:40:42.581Z,8.07
2022-07-26T12:44:50.605Z,7.57
2022-07-26T12:49:00.164Z,7.25
2022-07-26T12:53:08.854Z,6.53
2022-07-26T12:57:14.356Z,6.78
2022-07-26T13:01:22.448Z,5.82
2022-07-26T13:05:27.899Z,7.95
2022-07-26T13:09:33.539Z,6.10
2022-07-26T13:13:38.891Z,5.80
2022-07-26T13:17:46.953Z,8.75
2022-07-26T13:21:53.066Z,6.25
2022-07-26T13:25:58.687Z,5.20
2022-07-26T13:30:05.545Z,5.95
2022-07-26T13:34:14.162Z,6.07
2022-07-26T13:38:21.614Z,7.43
2022-07-26T13:42:27.124Z,5.95
2022-07-26T13:46:33.692Z,5.90
2022-07-26T13:50:41.908Z,6.40
2022-07-26T13:54:47.316Z,6.40
2022-07-26T13:58:52.778Z,6.95
2022-07-26T14:03:01.029Z,8.60
2022-07-26T14:07:08.994Z,6.95
2022-07-26T14:11:14.523Z,8.10
2022-07-26T14:15:23.168Z,8.80
2022-07-26T14:19:28.945Z,8.93
2022-07-26T14:23:36.961Z,7.28
2022-07-26T14:27:42.694Z,6.80
2022-07-26T14:31:48.193Z,9.77
2022-07-26T14:35:53.687Z,7.70
2022-07-26T14:40:01.762Z,6.95
2022-07-26T14:44:08.184Z,9.32
2022-07-26T14:48:26.824Z,9.38
2022-07-26T14:52:40.644Z,7.63
2022-07-26T14:56:49.209Z,12.85
2022-07-26T15:00:55.553Z,8.00
2022-07-26T15:05:02.062Z,8.80
2022-07-26T15:09:07.692Z,6.90
2022-07-26T15:13:16.075Z,8.15
2022-07-26T15:17:21.592Z,13.98
2022-07-26T15:21:27.433Z,10.40
2022-07-26T15:25:32.804Z,9.30
2022-07-26T15:29:41.119Z,6.97
2022-07-26T15:33:48.461Z,6.70
2022-07-26T15:37:53.953Z,10.95
2022-07-26T15:42:03.896Z,8.95
2022-07-26T15:46:14.817Z,8.93
2022-07-26T15:50:21.507Z,9.88
2022-07-26T15:54:29.526Z,7.70
2022-07-26T15:58:35.033Z,8.55
2022-07-26T16:02:44.351Z,9.00
2022-07-26T16:06:50.106Z,7.38
2022-07-26T16:10:58.039Z,9.15
2022-07-26T16:15:04.309Z,10.00
2022-07-26T16:19:12.899Z,6.90
2022-07-26T16:23:18.720Z,6.43
2022-07-26T16:27:28.467Z,12.93
2022-07-26T16:31:34.215Z,12.25
2022-07-26T16:35:42.374Z,8.38
2022-07-26T16:39:47.892Z,8.43
2022-07-26T16:43:53.349Z,7.97
2022-07-26T16:48:00.082Z,8.48
2022-07-26T16:52:09.291Z,8.00
2022-07-26T16:56:14.866Z,9.43
2022-07-26T17:00:22.454Z,9.05
2022-07-26T17:04:27.891Z,11.05
2022-07-26T17:08:36.314Z,8.70
2022-07-26T17:12:42.702Z,9.65
2022-07-26T17:16:50.327Z,8.23
2022-07-26T17:20:55.745Z,9.98
2022-07-26T17:25:03.750Z,11.23
2022-07-26T17:29:09.572Z,7.18
2022-07-26T17:33:15.254Z,12.00
2022-07-26T17:37:21.832Z,8.38
2022-07-26T17:41:32.632Z,11.23
2022-07-26T17:45:38.327Z,10.23
2022-07-26T17:49:43.894Z,9.80
2022-07-26T17:53:53.471Z,9.30
2022-07-26T17:58:01.684Z,9.55
2022-07-26T18:02:07.176Z,11.55
2022-07-26T18:06:12.864Z,11.93
2022-07-26T18:10:18.432Z,10.68
2022-07-26T18:14:26.476Z,11.82
2022-07-26T18:18:31.822Z,11.68
2022-07-26T18:22:37.254Z,12.38
2022-07-26T18:26:43.050Z,10.85
2022-07-26T18:30:51.129Z,16.92
2022-07-26T18:34:56.581Z,13.38
2022-07-26T18:39:02.539Z,12.75
2022-07-26T18:43:08.089Z,16.10
2022-07-26T18:47:16.107Z,12.88
2022-07-26T18:51:22.177Z,12.13
2022-07-26T18:55:32.169Z,16.77
2022-07-26T18:59:39.699Z,15.95
2022-07-26T19:03:47.855Z,15.18
2022-07-26T19:07:54.100Z,16.08
2022-07-26T19:11:59.794Z,13.70
2022-07-26T19:16:05.274Z,20.50
2022-07-26T19:20:14.845Z,15.57
2022-07-26T19:24:20.829Z,16.98
2022-07-26T19:28:29.250Z,19.63
2022-07-26T19:32:36.665Z,15.98
2022-07-26T19:36:46.325Z,15.15
2022-07-26T19:40:56.991Z,18.23
2022-07-26T19:45:04.042Z,17.58
2022-07-26T19:49:11.283Z,13.35
2022-07-26T19:53:19.567Z,31.73
2022-07-26T19:57:27.854Z,17.00
2022-07-26T20:01:41.606Z,17.40
2022-07-26T20:05:47.357Z,13.88
2022-07-26T20:09:55.499Z,10.27
2022-07-26T20:14:19.412Z,11.13
2022-07-26T20:18:28.864Z,12.50
2022-07-26T20:22:34.359Z,9.52
2022-07-26T20:26:43.960Z,11.27
2022-07-26T20:30:51.786Z,11.38
2022-07-26T20:34:57.625Z,10.27
2022-07-26T20:39:03.383Z,12.90
2022-07-26T20:43:11.395Z,12.95
2022-07-26T20:47:19.188Z,14.83
2022-07-26T20:51:27.310Z,10.52
2022-07-26T20:55:32.958Z,9.02
2022-07-26T20:59:41.077Z,14.93
2022-07-26T21:03:47.647Z,18.10
2022-07-26T21:07:58.797Z,15.05
2022-07-26T21:12:05.077Z,17.20
2022-07-26T21:16:14.214Z,19.80
2022-07-26T21:20:20.210Z,15.35
2022-07-26T21:24:26.235Z,16.45
2022-07-26T21:28:31.740Z,24.27
2022-07-26T21:32:39.835Z,14.95
2022-07-26T21:36:45.252Z,19.98
2022-07-26T21:40:51.620Z,20.77
2022-07-26T21:44:56.976Z,20.70
2022-07-26T21:49:05.085Z,21.70
2022-07-26T21:53:10.511Z,33.60
2022-07-26T21:57:15.914Z,30.60
2022-07-26T22:01:21.299Z,19.10
2022-07-26T22:05:38.390Z,19.00
2022-07-26T22:09:43.794Z,18.08
2022-07-26T22:13:49.164Z,19.70
2022-07-26T22:17:55.225Z,22.05
2022-07-26T22:22:05.780Z,18.48
2022-07-26T22:26:11.141Z,20.43
2022-07-26T22:30:18.388Z,25.05
2022-07-26T22:34:23.715Z,21.95
2022-07-26T22:38:31.719Z,18.27
2022-07-26T22:42:37.093Z,17.67
2022-07-26T22:46:42.556Z,17.10
2022-07-26T22:50:48.063Z,14.65
2022-07-26T22:54:56.069Z,19.58
2022-07-26T22:59:01.471Z,23.17
2022-07-26T23:03:11.828Z,16.45
2022-07-26T23:07:25.838Z,18.42
2022-07-26T23:11:33.862Z,15.52
2022-07-26T23:15:39.380Z,13.43
2022-07-26T23:19:45.087Z,10.52
2022-07-26T23:23:50.578Z,11.52
2022-07-26T23:27:59.379Z,12.63
2022-07-26T23:32:05.171Z,14.98
2022-07-26T23:36:10.790Z,9.95
2022-07-26T23:40:16.458Z,13.70
2022-07-26T23:44:24.531Z,10.07
2022-07-26T23:48:30.022Z,14.18
2022-07-26T23:52:35.430Z,15.98
2022-07-26T23:56:40.781Z,13.05
